createdAt,value
2019-02-10T12:02:55.393Z,203.58
2019-02-10T12:05:25.914Z,202.28
2019-02-10T12:07:57.035Z,198.95
2019-02-10T12:10:28.452Z,202.25
2019-02-10T12:12:58.850Z,210.08
2019-02-10T12:15:29.210Z,207.35
2019-02-10T12:18:00.253Z,203.88
2019-02-10T12:20:30.663Z,206.55
2019-02-10T12:23:01.687Z,209.57
2019-02-10T12:25:32.026Z,216.73
2019-02-10T12:28:03.328Z,208.13
2019-02-10T12:30:33.236Z,216.42
2019-02-10T12:33:03.114Z,206.17
2019-02-10T12:35:33.094Z,204.07
2019-02-10T12:38:04.098Z,204.10
2019-02-10T12:40:34.094Z,214.53
2019-02-10T12:43:04.101Z,212.53
2019-02-10T12:45:35.935Z,213.90
2019-02-10T12:48:07.689Z,208.47
2019-02-10T12:50:39.720Z,204.75
2019-02-10T12:53:11.210Z,204.47
2019-02-10T12:55:41.461Z,209.15
2019-02-10T12:58:12.888Z,207.72
2019-02-10T13:00:43.037Z,213.65
2019-02-10T13:03:13.127Z,205.20
2019-02-10T13:05:43.610Z,214.10
2019-02-10T13:08:13.573Z,218.33
2019-02-10T13:10:44.065Z,213.10
2019-02-10T13:13:19.402Z,221.07
2019-02-10T13:15:47.884Z,219.32
2019-02-10T13:18:19.665Z,233.30
2019-02-10T13:20:50.367Z,216.63
2019-02-10T13:23:21.138Z,216.00
2019-02-10T13:25:51.582Z,216.05
2019-02-10T13:28:21.903Z,212.42
2019-02-10T13:30:52.302Z,204.20
2019-02-10T13:33:22.955Z,205.75
2019-02-10T13:35:53.755Z,204.03
2019-02-10T13:38:25.581Z,202.68
2019-02-10T13:40:56.334Z,208.95
2019-02-10T13:43:33.388Z,204.30
2019-02-10T13:45:59.147Z,221.60
2019-02-10T13:48:31.135Z,212.02
2019-02-10T13:51:01.969Z,211.90
2019-02-10T13:53:32.510Z,217.00
2019-02-10T13:56:02.952Z,211.72
2019-02-10T13:58:34.447Z,227.95
2019-02-10T14:01:06.253Z,218.75
2019-02-10T14:03:37.166Z,216.17
2019-02-10T14:06:07.585Z,220.25
2019-02-10T14:08:38.043Z,225.05
2019-02-10T14:11:08.472Z,224.30
2019-02-10T14:13:38.696Z,231.53
2019-02-10T14:16:08.911Z,233.13
2019-02-10T14:18:39.373Z,228.52
2019-02-10T14:21:10.144Z,225.90
2019-02-10T14:23:40.922Z,241.45
2019-02-10T14:26:11.549Z,232.18
2019-02-10T14:28:41.745Z,239.25
2019-02-10T14:31:12.250Z,235.35
2019-02-10T14:33:42.754Z,240.45
2019-02-10T14:36:13.512Z,235.90
2019-02-10T14:38:45.403Z,238.15
2019-02-10T14:41:16.303Z,239.10
2019-02-10T14:43:46.684Z,236.00
2019-02-10T14:46:17.586Z,240.25
2019-02-10T14:48:49.485Z,222.35
2019-02-10T14:51:20.465Z,237.97
2019-02-10T14:53:51.180Z,221.75
2019-02-10T14:56:21.946Z,223.82
2019-02-10T14:58:53.856Z,225.10
2019-02-10T15:01:24.734Z,236.50
2019-02-10T15:03:55.703Z,231.20
2019-02-10T15:06:26.414Z,239.50
2019-02-10T15:08:58.117Z,244.62
2019-02-10T15:11:29.024Z,237.50
2019-02-10T15:13:59.796Z,241.70
2019-02-10T15:16:30.598Z,238.65
2019-02-10T15:19:01.297Z,235.40
2019-02-10T15:21:31.961Z,245.35
2019-02-10T15:24:02.634Z,242.20
2019-02-10T15:26:33.369Z,248.72
2019-02-10T15:29:04.296Z,242.03
2019-02-10T15:31:35.976Z,236.12
2019-02-10T15:34:06.961Z,232.12
2019-02-10T15:36:37.586Z,255.15
2019-02-10T15:39:10.322Z,260.95
2019-02-10T15:41:41.371Z,237.27
2019-02-10T15:44:12.034Z,242.97
2019-02-10T15:46:42.766Z,277.82
2019-02-10T15:49:14.559Z,263.15
2019-02-10T15:51:45.371Z,251.98
2019-02-10T15:54:15.890Z,256.10
2019-02-10T15:56:46.971Z,256.90
2019-02-10T15:59:18.824Z,259.35
2019-02-10T16:01:49.649Z,269.32
2019-02-10T16:04:20.334Z,255.05
2019-02-10T16:06:57.561Z,246.47
2019-02-10T16:09:28.525Z,266.08
2019-02-10T16:11:59.439Z,262.55
2019-02-10T16:14:31.230Z,256.90
2019-02-10T16:17:02.139Z,263.50
2019-02-10T16:19:33.021Z,252.22
2019-02-10T16:22:03.814Z,256.87
2019-02-10T16:24:34.497Z,256.60
2019-02-10T16:27:05.264Z,272.40
2019-02-10T16:29:36.227Z,283.05
2019-02-10T16:32:07.271Z,292.20
2019-02-10T16:34:38.020Z,293.05
2019-02-10T16:37:09.001Z,278.42
2019-02-10T16:39:39.778Z,272.88
2019-02-10T16:42:10.612Z,271.87
2019-02-10T16:44:41.296Z,288.02
2019-02-10T16:47:12.091Z,300.65
2019-02-10T16:49:43.034Z,306.85
2019-02-10T16:52:13.972Z,308.70
2019-02-10T16:54:44.816Z,288.65
2019-02-10T16:57:16.657Z,304.65
2019-02-10T16:59:47.619Z,301.92
2019-02-10T17:02:18.521Z,300.90
2019-02-10T17:04:49.288Z,292.37
2019-02-10T17:07:20.112Z,290.98
2019-02-10T17:09:51.085Z,300.02
2019-02-10T17:12:22.261Z,291.35
2019-02-10T17:14:52.551Z,278.55
2019-02-10T17:17:23.461Z,282.45
2019-02-10T17:19:56.494Z,278.55
2019-02-10T17:22:29.028Z,276.70
2019-02-10T17:25:02.707Z,279.05
2019-02-10T17:27:33.652Z,277.43
2019-02-10T17:30:04.719Z,276.58
2019-02-10T17:32:36.448Z,275.32
2019-02-10T17:35:09.747Z,287.33
2019-02-10T17:37:40.789Z,256.95
2019-02-10T17:40:33.917Z,275.73
2019-02-10T17:43:15.693Z,257.25
2019-02-10T17:45:46.481Z,248.62
2019-02-10T17:48:24.712Z,243.57
2019-02-10T17:50:56.851Z,245.48
2019-02-10T17:53:27.674Z,235.20
2019-02-10T17:55:58.524Z,231.82
2019-02-10T17:58:30.374Z,237.80
2019-02-10T18:01:01.128Z,237.40
2019-02-10T18:03:32.060Z,233.45
2019-02-10T18:06:03.007Z,224.42
2019-02-10T18:08:35.900Z,229.25
2019-02-10T18:11:06.653Z,226.95
2019-02-10T18:13:37.437Z,228.60
2019-02-10T18:16:25.200Z,229.32
2019-02-10T18:18:59.371Z,221.87
2019-02-10T18:21:35.064Z,229.80
2019-02-10T18:24:14.658Z,234.75
2019-02-10T18:26:47.117Z,237.38
2019-02-10T18:29:38.157Z,230.43
2019-02-10T18:32:19.469Z,228.15
2019-02-10T18:35:09.615Z,226.25
2019-02-10T18:37:47.926Z,247.67
2019-02-10T18:40:23.063Z,246.87
2019-02-10T18:43:04.624Z,254.70
2019-02-10T18:45:49.415Z,237.17
2019-02-10T18:48:21.783Z,245.52
2019-02-10T18:50:54.077Z,234.77
2019-02-10T18:53:39.125Z,250.18
2019-02-10T18:56:11.597Z,233.23
2019-02-10T18:59:00.562Z,239.90
2019-02-10T19:01:45.020Z,238.95
2019-02-10T19:04:23.638Z,245.02
2019-02-10T19:07:08.146Z,243.22
2019-02-10T19:09:40.827Z,231.72
2019-02-10T19:12:16.113Z,235.00
2019-02-10T19:17:52.398Z,236.43
2019-02-10T19:20:31.121Z,231.47
2019-02-10T19:23:07.636Z,233.80
2019-02-10T19:25:47.089Z,233.75
2019-02-10T19:28:25.275Z,223.25
2019-02-10T19:30:57.607Z,223.60
2019-02-10T19:33:29.947Z,231.20
2019-02-10T19:36:02.268Z,236.15
2019-02-10T19:38:34.742Z,231.68
2019-02-10T19:41:21.431Z,224.22
2019-02-10T19:43:59.986Z,232.05
2019-02-10T19:46:35.391Z,231.82
2019-02-10T19:52:28.473Z,276.58
2019-02-10T19:55:00.911Z,240.35
2019-02-10T19:57:36.884Z,222.05
2019-02-10T20:00:23.246Z,239.02
2019-02-10T20:02:58.747Z,228.27
2019-02-10T20:05:43.509Z,229.47
2019-02-10T20:08:21.924Z,231.15
2019-02-10T20:11:03.105Z,218.37
2019-02-10T20:13:38.339Z,227.93
2019-02-10T20:16:26.896Z,249.02
2019-02-10T20:19:06.368Z,263.15
2019-02-10T20:21:59.289Z,230.50
2019-02-10T20:24:43.776Z,222.58
2019-02-10T20:27:32.804Z,225.00
2019-02-10T20:30:15.030Z,232.37
2019-02-10T20:32:57.535Z,219.37
2019-02-10T20:35:33.221Z,241.08
